Aérodrome :
LOGIN :

S'inscrire | Disclaimer

   EN    FR    IT 

 










Légende :    VFR   VFR Marginal   IFR   IFR Intensif   IFR Très Intensif
Visi : 
Plafond : 
>= 8 km
>= 3000ft
5 à 8 km
1000 à 3000 ft
1500m à 5 km
500 à 1000 ft
800 à 1500m
200 à 500 ft
< 800m
< 200 ft
Symboles :   Orages  Brouillard  Fortes neiges  Fortes précipitations  Vent > 20 kt
SIGMETs :   Divers  Orages  Givrage  Turbulence  Onde Orograph.  Cendres Volcan.






- Altitude de l'aérodrome : 390 ft
- Code IATA : NQY


EGHQ - Newquay

DERNIER METAR :
  • 252320Z AUTO 29030G42KT 9999 RASN BKN025/// 03/00 Q1004

METARs EXPIRÉS :
  • 252250Z AUTO 29030KT 9999 SCT031/// BKN048/// 05/00 Q1003 RERA
  • 252220Z AUTO 30030KT 9999 BKN030/// 05/00 Q1003 RERA
  • 252150Z AUTO 30030KT 9999 FEW033/// 05/00 Q1003
  • 252120Z 30025KT 9999 FEW032 04/00 Q1003
  • 252050Z 30025KT 9999 VCSH FEW024 05/00 Q1003

TAF TAF EGHQ
Valide du 25 à 21h jusqu'au 26 à 06h UTC


252001Z 2521/2606 28025G35KT 9999 SCT025
TEMPO 2521/2606 29032G45KT 6000 SHRA BKN009 BKN020CB
PROB40
TEMPO 2521/2606 3000 +SHRAGS



MET'MAP, la Météo Aéronautique d'un coup d'oeil ! - Copyright ORBIFLY Décembre 2007 - Disclaimer

ORBIFLY MET'MAP TEAM :

Programmation & Développement : Alexandra Zaïnal
Sur une idée originale de : Baudouin d'Aumeries
Assistance à la programmation : Marc-Olivier Méhu
Soutien technique & logistique : Manuel Goepfert

Contact : metmap@orbifly.com




SOURCES & CREDITS :

   NOAA